Time;durP1;ratioP1;P1;durP2;ratioP2;P2;SDS_P1;SDS_P2;PMS_P1;PMS_P2;Temp;Humidity;BMP_temperature;BMP_pressure;BME280_temperature;BME280_humidity;BME280_pressure;Samples;Min_cycle;Max_cycle;Signal;HPM_P1;HPM_P2
2022/10/01 00:01:46;;;;;;;;;3.50;3.50;;;;;14.88;69.29;100425.44;5075040;27;47178;-65
2022/10/01 00:04:12;;;;;;;;;3.00;3.00;;;;;14.72;69.42;100390.50;5069511;28;45367;-64
2022/10/01 00:06:37;;;;;;;;;5.00;5.00;;;;;14.78;69.43;100376.75;5079606;27;45313;-65
2022/10/01 00:09:03;;;;;;;;;2.00;2.00;;;;;14.68;69.88;100362.06;5076632;28;45523;-65
2022/10/01 00:11:28;;;;;;;;;3.00;3.00;;;;;14.73;69.42;100364.50;5076174;27;45657;-65
2022/10/01 00:13:54;;;;;;;;;2.25;2.25;;;;;14.85;70.04;100385.34;5082083;28;45528;-64
2022/10/01 00:16:23;;;;;;;;;3.00;3.00;;;;;14.66;69.97;100347.88;5074941;27;45393;-65
2022/10/01 00:18:49;;;;;;;;;4.75;2.50;;;;;14.73;70.22;100376.09;5073385;28;45396;-65
2022/10/01 00:21:18;;;;;;;;;3.00;3.00;;;;;14.74;70.35;100364.41;5067752;27;45349;-65
2022/10/01 00:23:44;;;;;;;;;4.25;3.00;;;;;14.80;70.01;100368.56;5074074;28;45501;-65
2022/10/01 00:26:19;;;;;;;;;2.00;2.00;;;;;14.79;70.52;100369.53;5075402;27;45417;-65
2022/10/01 00:28:47;;;;;;;;;2.25;2.25;;;;;14.61;70.66;100337.38;5068161;28;45415;-65
2022/10/01 00:31:14;;;;;;;;;2.75;2.00;;;;;14.71;70.56;100337.72;5068992;27;45389;-65
2022/10/01 00:33:40;;;;;;;;;2.00;2.00;;;;;14.76;70.65;100354.44;5081852;28;45570;-65
2022/10/01 00:36:08;;;;;;;;;3.00;2.00;;;;;14.79;70.75;100348.06;5078219;27;45415;-64
2022/10/01 00:38:34;;;;;;;;;5.00;2.00;;;;;14.58;70.83;100312.47;5063353;28;45477;-65
2022/10/01 00:41:00;;;;;;;;;2.50;2.50;;;;;14.60;71.21;100319.53;5079955;27;45357;-65
2022/10/01 00:43:30;;;;;;;;;3.00;3.00;;;;;14.66;71.30;100336.25;5077072;27;45719;-65
2022/10/01 00:46:02;;;;;;;;;3.50;3.00;;;;;14.68;71.65;100350.47;5063789;27;45397;-65
2022/10/01 00:48:31;;;;;;;;;2.75;2.75;;;;;14.39;72.29;100302.75;5076188;27;45324;-65
2022/10/01 00:50:57;;;;;;;;;2.00;1.75;;;;;14.63;71.62;100358.78;5080069;27;45295;-65
2022/10/01 00:53:23;;;;;;;;;1.25;1.25;;;;;14.61;71.82;100352.63;5067183;28;45433;-65
2022/10/01 00:55:54;;;;;;;;;3.00;2.00;;;;;14.69;72.03;100366.50;5080892;27;45354;-65
2022/10/01 00:58:20;;;;;;;;;2.25;2.00;;;;;14.70;72.16;100357.50;5077041;27;45307;-65
2022/10/01 01:00:47;;;;;;;;;1.75;1.75;;;;;14.69;72.24;100365.66;5067045;27;46183;-65
2022/10/01 01:03:13;;;;;;;;;3.00;2.00;;;;;14.68;72.35;100356.69;5067565;27;45334;-65
2022/10/01 01:05:39;;;;;;;;;2.00;2.00;;;;;14.69;72.35;100363.81;5070656;28;45349;-65
2022/10/01 01:08:05;;;;;;;;;3.00;3.00;;;;;14.68;72.73;100351.31;5068331;27;55912;-65
2022/10/01 01:10:43;;;;;;;;;2.75;2.25;;;;;14.70;73.07;100357.50;5079231;28;46232;-65
2022/10/01 01:13:31;;;;;;;;;3.50;2.75;;;;;14.70;72.86;100348.56;5081094;27;45413;-65
2022/10/01 01:16:15;;;;;;;;;3.00;3.00;;;;;14.68;72.92;100347.78;5078955;27;45354;-65
2022/10/01 01:18:51;;;;;;;;;1.75;1.75;;;;;14.67;73.12;100349.59;5062109;28;45292;-65
2022/10/01 01:21:29;;;;;;;;;2.00;2.00;;;;;14.66;73.44;100363.97;5069156;27;45288;-65
2022/10/01 01:24:23;;;;;;;;;2.00;2.00;;;;;14.67;73.79;100360.34;5070887;28;45508;-65
2022/10/01 01:27:07;;;;;;;;;2.50;2.50;;;;;14.66;73.78;100350.56;5043702;27;45625;-64
2022/10/01 01:29:49;;;;;;;;;1.50;1.50;;;;;14.68;73.47;100329.84;5077932;27;45543;-65
2022/10/01 01:32:22;;;;;;;;;1.75;1.75;;;;;14.63;73.71;100331.91;5070910;27;46438;-65
2022/10/01 01:34:51;;;;;;;;;2.00;2.00;;;;;14.69;73.80;100334.25;5060960;28;45305;-65
2022/10/01 01:37:20;;;;;;;;;3.00;1.00;;;;;14.70;74.14;100327.06;5068961;27;45605;-65
2022/10/01 01:39:51;;;;;;;;;1.00;1.00;;;;;14.65;74.48;100311.22;5073009;28;46172;-65
2022/10/01 01:42:24;;;;;;;;;1.00;1.00;;;;;14.67;74.28;100317.38;5074899;27;46187;-65
2022/10/01 01:44:53;;;;;;;;;1.25;1.00;;;;;14.72;74.35;100320.66;5071077;28;45564;-65
2022/10/01 01:47:22;;;;;;;;;1.00;1.00;;;;;14.75;73.85;100306.19;5061642;27;45323;-65
2022/10/01 01:49:49;;;;;;;;;1.00;1.00;;;;;14.76;74.40;100316.84;5060628;28;45465;-65
2022/10/01 01:52:16;;;;;;;;;1.75;1.75;;;;;14.72;74.04;100298.31;5077609;27;46267;-65
2022/10/01 01:54:43;;;;;;;;;0.75;0.75;;;;;14.78;74.42;100314.06;5069905;27;45528;-65
2022/10/01 01:57:11;;;;;;;;;2.00;1.00;;;;;14.79;74.72;100303.22;5061909;27;45455;-65
2022/10/01 01:59:36;;;;;;;;;1.00;1.00;;;;;14.79;74.46;100302.38;5060995;27;45713;-65
2022/10/01 02:02:05;;;;;;;;;1.00;1.00;;;;;14.76;74.48;100299.84;5070865;27;46024;-65
2022/10/01 02:04:53;;;;;;;;;0.25;0.25;;;;;14.83;74.57;100303.91;5068792;28;45552;-65
2022/10/01 02:07:37;;;;;;;;;3.00;1.00;;;;;14.85;74.81;100304.72;5068907;27;45454;-65
2022/10/01 02:10:09;;;;;;;;;0.00;0.00;;;;;14.87;75.09;100285.78;5072016;28;45605;-65
2022/10/01 02:12:37;;;;;;;;;1.00;1.00;;;;;14.86;74.73;100302.91;5080313;27;45429;-64
2022/10/01 02:15:21;;;;;;;;;0.00;0.00;;;;;14.86;75.24;100297.53;5078659;28;45520;-65
2022/10/01 02:17:58;;;;;;;;;1.00;1.00;;;;;14.84;74.90;100302.13;5080511;27;45712;-64
2022/10/01 02:20:33;;;;;;;;;0.00;0.00;;;;;14.87;74.86;100300.13;5059452;28;45390;-65
2022/10/01 02:23:08;;;;;;;;;0.00;0.00;;;;;14.84;75.37;100283.31;5075717;27;45531;-64
2022/10/01 02:25:42;;;;;;;;;2.75;1.00;;;;;14.86;75.15;100279.56;5064521;28;45656;-64
2022/10/01 02:28:15;;;;;;;;;1.50;1.00;;;;;14.89;75.23;100278.53;5072304;27;45240;-65
2022/10/01 02:30:43;;;;;;;;;0.00;0.00;;;;;14.90;74.73;100277.56;5067875;28;45504;-65
2022/10/01 02:33:12;;;;;;;;;0.00;0.00;;;;;14.96;75.00;100290.66;5065948;27;45436;-65
2022/10/01 02:35:40;;;;;;;;;0.25;0.25;;;;;14.90;75.01;100273.06;5059065;28;45560;-65
2022/10/01 02:38:08;;;;;;;;;0.00;0.00;;;;;14.93;75.07;100269.31;5072278;27;45392;-65
2022/10/01 02:40:38;;;;;;;;;0.25;0.25;;;;;15.00;74.98;100276.06;5068056;28;45433;-65
2022/10/01 02:43:11;;;;;;;;;1.00;1.00;;;;;15.00;75.11;100281.44;5072911;27;46497;-65
2022/10/01 02:45:39;;;;;;;;;0.00;0.00;;;;;14.92;75.16;100254.19;5062583;28;45688;-65
2022/10/01 02:48:10;;;;;;;;;0.00;0.00;;;;;15.00;75.27;100276.06;5064244;27;45583;-65
2022/10/01 02:50:43;;;;;;;;;0.00;0.00;;;;;14.99;75.25;100274.34;5065741;28;45427;-65
2022/10/01 02:53:19;;;;;;;;;0.75;0.75;;;;;15.01;75.22;100264.38;5060179;27;45574;-65
2022/10/01 02:55:46;;;;;;;;;1.00;1.00;;;;;14.99;75.51;100256.41;5069383;28;45394;-65
2022/10/01 02:58:12;;;;;;;;;0.00;0.00;;;;;15.05;75.71;100255.19;5068648;27;45532;-66
2022/10/01 03:00:37;;;;;;;;;0.25;0.00;;;;;15.01;75.31;100243.72;5065749;27;45331;-63
2022/10/01 03:03:02;;;;;;;;;0.00;0.00;;;;;15.01;75.46;100232.13;5070877;27;45417;-65
2022/10/01 03:05:28;;;;;;;;;0.00;0.00;;;;;15.06;75.31;100226.47;5069596;28;45690;-65
2022/10/01 03:07:53;;;;;;;;;1.00;0.50;;;;;15.08;75.88;100229.94;5067975;27;45528;-65
2022/10/01 03:10:19;;;;;;;;;0.00;0.00;;;;;15.09;75.60;100229.00;5057613;28;45490;-66
2022/10/01 03:12:45;;;;;;;;;0.00;0.00;;;;;15.12;75.94;100242.25;5071314;27;47012;-65
2022/10/01 03:15:17;;;;;;;;;0.00;0.00;;;;;15.07;76.19;100217.44;5068938;27;45429;-65
2022/10/01 03:17:42;;;;;;;;;0.00;0.00;;;;;15.14;75.64;100226.91;5068863;27;45336;-65
2022/10/01 03:20:08;;;;;;;;;0.75;0.75;;;;;15.08;76.05;100219.19;5076921;28;45511;-65
2022/10/01 03:22:34;;;;;;;;;0.00;0.00;;;;;15.15;75.78;100224.13;5059674;27;45555;-65
2022/10/01 03:24:59;;;;;;;;;0.00;0.00;;;;;15.14;75.89;100227.75;5060512;28;45499;-65
2022/10/01 03:27:25;;;;;;;;;0.00;0.00;;;;;15.17;75.91;100232.94;5071336;27;45576;-65
2022/10/01 03:29:50;;;;;;;;;0.00;0.00;;;;;15.19;75.91;100235.53;5061104;27;45315;-65
2022/10/01 03:32:16;;;;;;;;;0.00;0.00;;;;;15.22;75.96;100230.00;5069528;27;45385;-65
2022/10/01 03:34:42;;;;;;;;;0.00;0.00;;;;;15.20;76.06;100223.81;5058692;28;45355;-65
2022/10/01 03:37:07;;;;;;;;;0.00;0.00;;;;;15.23;76.23;100231.69;5065542;27;45347;-65
2022/10/01 03:39:33;;;;;;;;;0.00;0.00;;;;;15.26;76.10;100236.91;5069042;28;45588;-65
2022/10/01 03:41:59;;;;;;;;;0.00;0.00;;;;;15.25;76.38;100235.19;5078542;27;46018;-65
2022/10/01 03:44:24;;;;;;;;;0.00;0.00;;;;;15.27;76.08;100235.06;5065360;28;45436;-65
2022/10/01 03:46:49;;;;;;;;;0.00;0.00;;;;;15.31;76.17;100240.19;5071196;27;45432;-65
2022/10/01 03:49:15;;;;;;;;;0.00;0.00;;;;;15.27;76.14;100214.44;5058592;28;45365;-65
2022/10/01 03:51:40;;;;;;;;;0.00;0.00;;;;;15.31;76.01;100220.50;5065041;27;46779;-65
2022/10/01 03:54:07;;;;;;;;;0.00;0.00;;;;;15.38;76.52;100220.03;5065111;28;45377;-65
2022/10/01 03:56:34;;;;;;;;;0.00;0.00;;;;;15.36;76.53;100229.16;5061861;27;45573;-65
2022/10/01 03:58:59;;;;;;;;;0.00;0.00;;;;;15.34;76.33;100242.69;5062049;27;45651;-65
2022/10/01 04:01:25;;;;;;;;;0.00;0.00;;;;;15.44;76.30;100250.22;5063761;27;45344;-65
2022/10/01 04:03:50;;;;;;;;;0.00;0.00;;;;;15.43;76.58;100252.00;5059779;27;45338;-65
2022/10/01 04:06:16;;;;;;;;;0.00;0.00;;;;;15.49;76.79;100256.19;5072079;27;45345;-65
2022/10/01 04:08:41;;;;;;;;;0.00;0.00;;;;;15.51;76.92;100270.38;5064023;28;45576;-65
2022/10/01 04:11:07;;;;;;;;;0.00;0.00;;;;;15.51;76.91;100267.69;5069378;28;45398;-65
2022/10/01 04:13:33;;;;;;;;;0.00;0.00;;;;;15.49;77.04;100270.47;5078421;27;45260;-65
2022/10/01 04:15:59;;;;;;;;;0.00;0.00;;;;;15.51;76.95;100252.41;5067243;28;45524;-65
2022/10/01 04:18:24;;;;;;;;;0.00;0.00;;;;;15.55;77.05;100280.00;5075499;27;45504;-65
2022/10/01 04:20:50;;;;;;;;;0.00;0.00;;;;;15.55;77.19;100291.63;5078338;28;46122;-65
2022/10/01 04:23:15;;;;;;;;;0.00;0.00;;;;;15.55;77.17;100283.56;5074750;27;45398;-65
2022/10/01 04:25:41;;;;;;;;;0.00;0.00;;;;;15.59;77.07;100294.16;5062123;28;45531;-65
2022/10/01 04:28:09;;;;;;;;;0.00;0.00;;;;;15.62;77.04;100297.53;5076372;27;45579;-65
2022/10/01 04:30:37;;;;;;;;;0.00;0.00;;;;;15.62;77.18;100307.38;5069875;27;45527;-65
2022/10/01 04:33:04;;;;;;;;;0.00;0.00;;;;;15.65;77.56;100302.72;5072667;27;45625;-65
2022/10/01 04:35:29;;;;;;;;;0.00;0.00;;;;;15.66;77.50;100301.75;5065783;28;45492;-65
2022/10/01 04:38:02;;;;;;;;;0.00;0.00;;;;;15.69;77.39;100306.09;5069371;27;45469;-65
2022/10/01 04:40:33;;;;;;;;;0.50;0.00;;;;;15.67;77.51;100302.59;5057964;28;45520;-65
2022/10/01 04:42:59;;;;;;;;;0.00;0.00;;;;;15.63;77.46;100306.44;5069352;27;45306;-65
2022/10/01 04:45:25;;;;;;;;;0.00;0.00;;;;;15.74;77.36;100318.28;5063520;28;45527;-65
2022/10/01 04:47:53;;;;;;;;;0.00;0.00;;;;;15.75;77.53;100313.75;5072493;27;45581;-65
2022/10/01 04:50:20;;;;;;;;;0.00;0.00;;;;;15.79;77.39;100314.50;5064558;28;45586;-65
2022/10/01 04:52:46;;;;;;;;;0.00;0.00;;;;;15.84;77.46;100325.84;5079312;27;45474;-65
2022/10/01 04:55:12;;;;;;;;;0.00;0.00;;;;;15.80;77.45;100317.06;5063213;28;45378;-65
2022/10/01 04:57:40;;;;;;;;;0.00;0.00;;;;;15.78;77.58;100315.44;5076817;27;45368;-65
2022/10/01 05:00:09;;;;;;;;;0.00;0.00;;;;;15.81;77.54;100323.34;5068426;27;46315;-65
2022/10/01 05:02:34;;;;;;;;;0.00;0.00;;;;;15.91;77.46;100335.28;5072233;27;45536;-65
2022/10/01 05:05:02;;;;;;;;;0.00;0.00;;;;;15.92;77.28;100328.91;5071805;28;45347;-65
2022/10/01 05:07:31;;;;;;;;;0.00;0.00;;;;;15.96;77.34;100341.22;5079972;27;45438;-65
2022/10/01 05:09:58;;;;;;;;;0.00;0.00;;;;;15.92;77.60;100337.88;5080060;28;45385;-65
2022/10/01 05:12:24;;;;;;;;;0.00;0.00;;;;;16.01;77.33;100349.03;5067276;27;45710;-65
2022/10/01 05:14:54;;;;;;;;;0.00;0.00;;;;;15.97;77.16;100334.00;5078559;27;45401;-65
2022/10/01 05:17:20;;;;;;;;;0.00;0.00;;;;;16.04;77.37;100343.47;5066745;27;45764;-65
2022/10/01 05:19:46;;;;;;;;;0.00;0.00;;;;;16.01;77.01;100339.13;5078894;27;45374;-65
2022/10/01 05:22:11;;;;;;;;;0.00;0.00;;;;;16.02;77.69;100346.25;5071157;27;45232;-65
2022/10/01 05:24:38;;;;;;;;;0.00;0.00;;;;;16.05;77.54;100362.19;5065774;27;45362;-65
2022/10/01 05:27:05;;;;;;;;;0.00;0.00;;;;;16.07;77.29;100356.72;5068862;27;45625;-65
2022/10/01 05:29:31;;;;;;;;;0.00;0.00;;;;;16.07;77.33;100351.31;5075479;28;47508;-65
2022/10/01 05:31:57;;;;;;;;;0.00;0.00;;;;;16.10;77.47;100354.72;5068826;27;45770;-65
2022/10/01 05:34:22;;;;;;;;;0.00;0.00;;;;;16.11;77.27;100364.50;5078424;27;45415;-65
2022/10/01 05:36:48;;;;;;;;;0.00;0.00;;;;;16.15;77.34;100375.97;5067389;27;45731;-65
2022/10/01 05:39:13;;;;;;;;;0.00;0.00;;;;;16.15;77.52;100378.66;5075894;27;45420;-65
2022/10/01 05:41:39;;;;;;;;;0.50;0.00;;;;;16.15;77.20;100383.19;5069711;28;45364;-65
2022/10/01 05:44:05;;;;;;;;;0.00;0.00;;;;;16.19;77.38;100387.41;5078032;27;45256;-66
2022/10/01 05:46:31;;;;;;;;;0.00;0.00;;;;;16.17;77.23;100387.53;5060327;28;45531;-65
2022/10/01 05:48:57;;;;;;;;;0.00;0.00;;;;;16.14;77.37;100393.09;5074671;27;46336;-65
2022/10/01 05:51:23;;;;;;;;;0.00;0.00;;;;;16.19;77.18;100396.38;5066132;28;45350;-65
2022/10/01 05:53:48;;;;;;;;;0.00;0.00;;;;;16.17;77.37;100394.72;5077525;27;45678;-65
2022/10/01 05:56:14;;;;;;;;;0.00;0.00;;;;;16.23;77.74;100414.06;5061781;28;45524;-65
2022/10/01 05:58:39;;;;;;;;;0.00;0.00;;;;;16.22;77.30;100406.97;5075910;27;46003;-65
2022/10/01 06:01:05;;;;;;;;;0.00;0.00;;;;;16.18;77.54;100405.41;5077610;28;46609;-65
2022/10/01 06:03:31;;;;;;;;;0.00;0.00;;;;;16.17;77.44;100400.09;5078633;27;45402;-65
2022/10/01 06:05:56;;;;;;;;;0.00;0.00;;;;;16.29;77.16;100423.59;5069854;28;45377;-65
2022/10/01 06:08:22;;;;;;;;;0.00;0.00;;;;;16.29;77.08;100426.31;5070112;27;45511;-65
2022/10/01 06:10:48;;;;;;;;;0.00;0.00;;;;;16.32;77.21;100438.69;5076754;28;45328;-65
2022/10/01 06:13:16;;;;;;;;;0.00;0.00;;;;;16.27;77.16;100425.50;5067861;27;45393;-65
2022/10/01 06:15:43;;;;;;;;;0.00;0.00;;;;;16.33;77.11;100446.69;5060015;28;45751;-65
2022/10/01 06:18:10;;;;;;;;;0.00;0.00;;;;;16.32;77.11;100455.72;5068291;27;45354;-65
2022/10/01 06:20:37;;;;;;;;;0.00;0.00;;;;;16.33;77.14;100460.16;5070474;28;45390;-65
2022/10/01 06:23:08;;;;;;;;;0.00;0.00;;;;;16.38;77.04;100467.97;5074196;27;45505;-66
2022/10/01 06:25:35;;;;;;;;;0.50;0.00;;;;;16.31;76.97;100448.63;5070200;28;45346;-65
2022/10/01 06:28:01;;;;;;;;;1.50;0.00;;;;;16.38;76.67;100454.50;5077103;27;47433;-65
2022/10/01 06:30:30;;;;;;;;;0.00;0.00;;;;;16.42;76.77;100466.78;5068970;28;45443;-65
2022/10/01 06:33:03;;;;;;;;;0.00;0.00;;;;;16.36;76.75;100459.97;5066132;27;45319;-66
2022/10/01 06:35:30;;;;;;;;;0.00;0.00;;;;;16.44;76.76;100462.22;5067479;28;46064;-66
2022/10/01 06:37:55;;;;;;;;;0.00;0.00;;;;;16.43;76.38;100457.75;5068050;27;45637;-65
2022/10/01 06:40:20;;;;;;;;;1.00;0.00;;;;;16.50;76.03;100467.19;5074384;28;45315;-66
2022/10/01 06:42:48;;;;;;;;;1.00;0.00;;;;;16.52;76.23;100476.03;5065494;27;49736;-65
2022/10/01 06:45:14;;;;;;;;;0.00;0.00;;;;;16.48;76.11;100469.13;5076697;28;45553;-65
2022/10/01 06:47:40;;;;;;;;;0.25;0.25;;;;;16.53;75.98;100480.47;5062859;27;45390;-66
2022/10/01 06:50:05;;;;;;;;;0.00;0.00;;;;;16.51;76.12;100487.81;5079563;27;45300;-66
2022/10/01 06:52:49;;;;;;;;;0.50;0.00;;;;;16.54;75.94;100476.84;5068849;27;45486;-65
2022/10/01 06:55:19;;;;;;;;;0.75;0.00;;;;;16.52;75.82;100483.28;5059606;28;45327;-65
2022/10/01 06:57:46;;;;;;;;;0.25;0.25;;;;;16.52;75.84;100478.75;5077221;27;46377;-65
2022/10/01 07:00:12;;;;;;;;;0.00;0.00;;;;;16.57;75.67;100490.13;5066749;27;45601;-65
2022/10/01 07:02:38;;;;;;;;;1.75;0.00;;;;;16.58;76.07;100483.75;5069752;27;45379;-65
2022/10/01 07:05:04;;;;;;;;;0.00;0.00;;;;;16.60;75.91;100489.06;5077721;28;45994;-65
2022/10/01 07:07:31;;;;;;;;;0.50;0.00;;;;;16.60;76.37;100499.84;5074730;27;49048;-65
2022/10/01 07:09:57;;;;;;;;;0.00;0.00;;;;;16.61;76.16;100502.44;5074150;27;45491;-65
2022/10/01 07:12:23;;;;;;;;;0.00;0.00;;;;;16.62;75.97;100506.88;5069923;28;45416;-65
2022/10/01 07:14:49;;;;;;;;;1.25;0.00;;;;;16.57;75.46;100497.31;5073485;27;45399;-65
2022/10/01 07:17:14;;;;;;;;;0.00;0.00;;;;;16.64;75.69;100509.47;5080496;27;45276;-65
2022/10/01 07:19:40;;;;;;;;;0.00;0.00;;;;;16.64;75.75;100523.81;5076103;27;45357;-65
2022/10/01 07:22:05;;;;;;;;;2.25;0.00;;;;;16.62;75.60;100530.25;5063789;28;45402;-64
2022/10/01 07:24:30;;;;;;;;;0.00;0.00;;;;;16.62;75.65;100524.84;5063009;27;45438;-65
2022/10/01 07:26:56;;;;;;;;;0.75;0.00;;;;;16.62;75.60;100519.47;5070523;28;45562;-65
2022/10/01 07:29:24;;;;;;;;;1.00;0.00;;;;;16.65;75.48;100530.91;5070010;27;45377;-65
2022/10/01 07:31:56;;;;;;;;;1.00;1.00;;;;;16.67;75.47;100544.28;5069544;28;45519;-65
2022/10/01 07:34:24;;;;;;;;;0.00;0.00;;;;;16.72;75.43;100546.72;5070931;27;45749;-66
2022/10/01 07:36:49;;;;;;;;;1.50;1.00;;;;;16.65;75.58;100551.63;5058348;28;46326;-66
2022/10/01 07:39:15;;;;;;;;;1.00;1.00;;;;;16.66;75.70;100551.53;5067604;27;45498;-66
2022/10/01 07:41:41;;;;;;;;;1.00;0.00;;;;;16.72;75.04;100561.06;5067358;28;45330;-66
2022/10/01 07:44:06;;;;;;;;;1.00;1.00;;;;;16.74;74.97;100561.84;5065679;27;45491;-66
2022/10/01 07:46:32;;;;;;;;;1.50;0.00;;;;;16.72;75.03;100560.19;5061938;28;45971;-66
2022/10/01 07:48:57;;;;;;;;;1.00;1.00;;;;;16.67;75.04;100558.66;5067387;27;45493;-65
2022/10/01 07:51:23;;;;;;;;;1.00;0.00;;;;;16.73;75.05;100564.63;5062884;28;45735;-65
2022/10/01 07:53:49;;;;;;;;;1.00;0.00;;;;;16.74;74.69;100572.63;5065613;27;45401;-65
2022/10/01 07:56:15;;;;;;;;;1.75;0.00;;;;;16.74;74.36;100579.81;5060804;28;46075;-66
2022/10/01 07:58:42;;;;;;;;;0.00;0.00;;;;;16.77;74.26;100587.72;5062183;27;45237;-66
2022/10/01 08:01:08;;;;;;;;;1.75;0.00;;;;;16.73;74.39;100583.50;5062869;27;46656;-66
2022/10/01 08:03:34;;;;;;;;;1.50;0.50;;;;;16.75;74.38;100587.81;5067027;27;45656;-66
2022/10/01 08:06:02;;;;;;;;;2.00;0.00;;;;;16.78;73.60;100597.56;5070808;28;45705;-66
2022/10/01 08:08:29;;;;;;;;;2.50;1.00;;;;;16.77;73.76;100595.81;5060795;27;45640;-65
2022/10/01 08:10:54;;;;;;;;;3.00;1.50;;;;;16.80;73.40;100595.63;5074582;28;45514;-66
2022/10/01 08:13:23;;;;;;;;;2.00;1.00;;;;;16.74;73.40;100588.81;5078201;27;45421;-67
2022/10/01 08:15:52;;;;;;;;;2.25;1.00;;;;;16.75;73.21;100593.22;5069730;27;46918;-66
2022/10/01 08:18:18;;;;;;;;;5.00;2.00;;;;;16.82;72.80;100599.09;5057291;27;45544;-66
2022/10/01 08:20:43;;;;;;;;;0.25;0.00;;;;;16.82;72.96;100608.09;5059274;28;45560;-66
2022/10/01 08:23:11;;;;;;;;;1.00;0.00;;;;;16.82;72.55;100613.47;5072339;28;45318;-66
2022/10/01 08:25:38;;;;;;;;;2.00;1.00;;;;;16.83;72.34;100609.78;5076729;28;45337;-70
2022/10/01 08:28:03;;;;;;;;;1.00;1.00;;;;;16.89;72.36;100621.19;5075788;27;45553;-66
2022/10/01 08:30:29;;;;;;;;;2.00;1.00;;;;;16.84;72.37;100608.88;5059904;28;45627;-65
2022/10/01 08:32:56;;;;;;;;;2.75;1.25;;;;;16.83;72.20;100615.19;5071967;28;45410;-70
2022/10/01 08:35:23;;;;;;;;;0.25;0.00;;;;;16.83;72.32;100620.56;5066356;28;46139;-67
2022/10/01 08:37:48;;;;;;;;;3.00;2.00;;;;;16.90;72.21;100634.59;5076772;28;45401;-67
2022/10/01 08:40:14;;;;;;;;;2.00;2.00;;;;;16.91;72.40;100636.34;5059138;28;45752;-67
2022/10/01 08:42:48;;;;;;;;;2.75;1.00;;;;;16.95;71.70;100639.72;5063844;28;45529;-67
2022/10/01 08:45:24;;;;;;;;;1.00;1.00;;;;;16.88;71.83;100631.13;5070939;28;45500;-66
2022/10/01 08:48:18;;;;;;;;;3.25;1.00;;;;;16.85;71.89;100634.84;5061170;28;45482;-67
2022/10/01 08:50:52;;;;;;;;;2.75;1.00;;;;;16.89;71.80;100643.66;5062339;28;45389;-68
2022/10/01 08:53:47;;;;;;;;;3.50;1.00;;;;;16.96;71.88;100660.31;5064040;28;45764;-68
2022/10/01 08:56:28;;;;;;;;;3.50;1.00;;;;;16.93;71.89;100660.50;5060794;28;45439;-68
2022/10/01 08:59:01;;;;;;;;;1.00;1.00;;;;;16.93;71.93;100658.66;5068759;28;45463;-68
2022/10/01 09:01:28;;;;;;;;;1.00;1.00;;;;;16.91;71.92;100660.59;5074086;27;45599;-68
2022/10/01 09:03:58;;;;;;;;;2.50;2.00;;;;;17.03;72.32;100680.56;5071831;27;45650;-68
2022/10/01 09:06:27;;;;;;;;;1.25;0.00;;;;;17.02;72.33;100679.69;5084767;27;46846;-68
2022/10/01 09:09:33;;;;;;;;;2.00;1.75;;;;;17.03;72.13;100683.25;5066666;28;45446;-68
2022/10/01 09:12:02;;;;;;;;;3.50;0.00;;;;;17.08;72.48;100689.22;5070236;28;45624;-68
2022/10/01 09:14:36;;;;;;;;;1.00;1.00;;;;;17.08;72.57;100685.69;5073740;28;45682;-67
2022/10/01 09:17:29;;;;;;;;;2.75;1.75;;;;;17.16;72.77;100688.78;5059170;28;46285;-70
2022/10/01 09:20:10;;;;;;;;;1.50;1.50;;;;;17.19;72.25;100688.56;5063876;28;45526;-70
2022/10/01 09:22:43;;;;;;;;;2.00;0.75;;;;;17.14;72.74;100685.28;5056027;28;48489;-71
2022/10/01 09:25:08;;;;;;;;;3.50;1.75;;;;;17.23;72.20;100690.13;5076099;28;45591;-70
2022/10/01 09:27:36;;;;;;;;;2.75;1.00;;;;;17.15;71.97;100690.59;5069129;28;46128;-70
2022/10/01 09:30:18;;;;;;;;;3.00;1.00;;;;;17.27;72.27;100702.47;5059120;28;45733;-71
2022/10/01 09:32:45;;;;;;;;;2.75;2.00;;;;;17.24;72.58;100699.97;5075708;28;45475;-71
2022/10/01 09:35:34;;;;;;;;;2.50;1.00;;;;;17.30;72.72;100713.06;5066718;28;45317;-71
2022/10/01 09:38:08;;;;;;;;;3.75;1.00;;;;;17.31;71.99;100714.81;5069198;28;45587;-71
2022/10/01 09:40:57;;;;;;;;;1.00;0.75;;;;;17.32;71.88;100721.06;5069656;28;45394;-77
2022/10/01 09:43:26;;;;;;;;;3.75;1.00;;;;;17.33;71.73;100734.47;5060314;28;45557;-71
2022/10/01 09:45:52;;;;;;;;;2.75;2.75;;;;;17.34;71.39;100727.22;5071766;28;46449;-71
2022/10/01 09:48:24;;;;;;;;;2.25;1.00;;;;;17.36;71.00;100728.03;5067643;28;46270;-72
2022/10/01 09:50:58;;;;;;;;;4.50;1.25;;;;;17.30;71.61;100713.06;5067366;28;45693;-72
2022/10/01 09:53:31;;;;;;;;;2.50;1.25;;;;;17.33;70.72;100715.59;5073034;27;48230;-72
2022/10/01 09:56:20;;;;;;;;;2.75;1.00;;;;;17.39;71.06;100728.72;5065530;28;47311;-72
2022/10/01 09:58:52;;;;;;;;;0.50;0.50;;;;;17.35;71.34;100726.28;5060144;28;45986;-72
2022/10/01 10:01:38;;;;;;;;;5.00;2.25;;;;;17.43;71.11;100739.31;5056653;28;45709;-73
2022/10/01 10:04:03;;;;;;;;;0.00;0.00;;;;;17.47;70.81;100747.09;5065809;27;45491;-74
2022/10/01 10:06:30;;;;;;;;;2.75;1.25;;;;;17.49;70.76;100753.31;5060907;28;45488;-74
2022/10/01 10:09:00;;;;;;;;;0.75;0.50;;;;;17.50;70.52;100746.06;5072339;28;47151;-73
2022/10/01 10:11:30;;;;;;;;;3.50;3.50;;;;;17.39;70.27;100736.81;5064316;28;46412;-73
2022/10/01 10:14:02;;;;;;;;;0.25;0.25;;;;;17.35;70.05;100723.59;5066027;28;46239;-73
2022/10/01 10:16:27;;;;;;;;;5.00;2.00;;;;;17.53;70.06;100752.13;5059343;28;45673;-73
2022/10/01 10:19:09;;;;;;;;;5.00;2.50;;;;;17.51;70.44;100753.22;5060681;28;46885;-77
2022/10/01 10:21:34;;;;;;;;;4.00;0.50;;;;;17.46;70.29;100733.72;5059710;28;45759;-77
2022/10/01 10:24:06;;;;;;;;;1.50;1.50;;;;;17.46;69.70;100741.81;5062828;28;45491;-72
2022/10/01 10:26:34;;;;;;;;;3.00;2.50;;;;;17.57;70.29;100752.81;5066815;27;45560;-70
2022/10/01 10:29:01;;;;;;;;;1.25;1.25;;;;;17.64;69.47;100767.69;5061295;28;46325;-72
2022/10/01 10:31:35;;;;;;;;;2.25;1.25;;;;;17.66;69.17;100773.84;5063263;28;45902;-71
2022/10/01 10:34:12;;;;;;;;;2.50;2.50;;;;;17.69;68.62;100775.47;5059962;28;45588;-71
2022/10/01 10:36:40;;;;;;;;;2.00;1.50;;;;;17.69;68.63;100764.69;5067458;28;45361;-74
2022/10/01 10:39:20;;;;;;;;;1.00;1.00;;;;;17.68;68.49;100760.25;5062217;27;46174;-71
2022/10/01 10:41:48;;;;;;;;;2.75;1.50;;;;;17.75;68.75;100777.81;5064111;28;45608;-65
2022/10/01 10:44:18;;;;;;;;;1.00;1.00;;;;;17.62;69.10;100749.84;5062807;28;48346;-65
2022/10/01 10:46:44;;;;;;;;;3.25;1.50;;;;;17.78;68.32;100773.09;5064617;28;45613;-65
2022/10/01 10:49:25;;;;;;;;;1.75;1.00;;;;;17.84;68.15;100788.06;5073270;28;46086;-66
2022/10/01 10:51:55;;;;;;;;;2.00;1.50;;;;;17.82;67.61;100771.06;5062673;28;45340;-65
2022/10/01 10:54:36;;;;;;;;;3.25;1.00;;;;;17.90;68.25;100786.81;5069757;28;45522;-66
2022/10/01 10:57:17;;;;;;;;;2.75;1.75;;;;;17.91;67.75;100784.03;5064617;28;45410;-65
2022/10/01 10:59:57;;;;;;;;;2.00;2.00;;;;;17.93;67.16;100792.91;5064688;27;47516;-66
2022/10/01 11:02:24;;;;;;;;;4.50;2.25;;;;;17.90;66.80;100776.88;5071037;28;45310;-66
2022/10/01 11:04:52;;;;;;;;;8.00;2.25;;;;;17.99;67.06;100790.78;5070456;28;45368;-65
2022/10/01 11:07:24;;;;;;;;;3.00;2.00;;;;;18.02;67.26;100799.56;5064609;27;46386;-66
2022/10/01 11:10:10;;;;;;;;;3.00;2.00;;;;;18.06;66.62;100811.91;5069739;28;45617;-65
2022/10/01 11:12:56;;;;;;;;;2.00;0.75;;;;;18.06;66.68;100806.50;5068484;28;45406;-66
2022/10/01 11:15:35;;;;;;;;;1.50;0.50;;;;;18.07;66.74;100810.06;5079207;27;45536;-66
2022/10/01 11:18:12;;;;;;;;;2.25;1.25;;;;;18.08;66.63;100807.28;5058937;28;45451;-65
2022/10/01 11:20:59;;;;;;;;;3.50;1.75;;;;;18.01;66.24;100805.94;5072203;28;46568;-66
2022/10/01 11:23:59;;;;;;;;;1.50;1.50;;;;;18.13;66.03;100825.91;5066542;28;45553;-65
2022/10/01 11:26:41;;;;;;;;;0.75;0.75;;;;;18.13;66.15;100824.06;5068916;28;45655;-66
2022/10/01 11:29:28;;;;;;;;;5.00;1.75;;;;;18.14;65.40;100820.41;5063014;28;45363;-65
2022/10/01 11:32:10;;;;;;;;;0.50;0.50;;;;;18.11;65.88;100808.94;5075602;28;45572;-66
2022/10/01 11:34:50;;;;;;;;;2.00;1.25;;;;;18.18;65.46;100823.78;5058110;28;45661;-66
2022/10/01 11:37:40;;;;;;;;;2.25;1.50;;;;;18.19;65.85;100828.19;5058977;28;45415;-66